sensor_id;sensor_type;location;lat;lon;timestamp;temperature;humidity
42907;DHT22;28552;51.146;6.576;2023-02-01T00:01:18;5.70;99.90
42907;DHT22;28552;51.146;6.576;2023-02-01T00:04:19;5.80;99.90
42907;DHT22;28552;51.146;6.576;2023-02-01T00:07:20;5.80;99.90
42907;DHT22;28552;51.146;6.576;2023-02-01T00:10:20;5.90;99.90
42907;DHT22;28552;51.146;6.576;2023-02-01T00:13:21;5.90;99.90
42907;DHT22;28552;51.146;6.576;2023-02-01T00:16:25;6.00;99.90
42907;DHT22;28552;51.146;6.576;2023-02-01T00:19:26;6.00;99.90
42907;DHT22;28552;51.146;6.576;2023-02-01T00:22:27;5.90;99.90
42907;DHT22;28552;51.146;6.576;2023-02-01T00:25:27;5.90;99.90
42907;DHT22;28552;51.146;6.576;2023-02-01T00:28:28;6.00;99.90
42907;DHT22;28552;51.146;6.576;2023-02-01T00:31:29;5.90;99.90
42907;DHT22;28552;51.146;6.576;2023-02-01T00:34:29;5.90;99.90
42907;DHT22;28552;51.146;6.576;2023-02-01T00:37:30;5.80;99.90
42907;DHT22;28552;51.146;6.576;2023-02-01T00:40:30;5.70;99.90
42907;DHT22;28552;51.146;6.576;2023-02-01T00:43:32;5.70;99.90
42907;DHT22;28552;51.146;6.576;2023-02-01T00:46:32;5.60;99.90
42907;DHT22;28552;51.146;6.576;2023-02-01T00:49:33;5.50;99.90
42907;DHT22;28552;51.146;6.576;2023-02-01T00:52:33;5.50;99.90
42907;DHT22;28552;51.146;6.576;2023-02-01T00:55:34;5.40;99.90
42907;DHT22;28552;51.146;6.576;2023-02-01T00:58:34;5.40;99.90
42907;DHT22;28552;51.146;6.576;2023-02-01T01:01:35;5.40;99.90
42907;DHT22;28552;51.146;6.576;2023-02-01T01:04:36;5.40;99.90
42907;DHT22;28552;51.146;6.576;2023-02-01T01:07:36;5.40;99.90
42907;DHT22;28552;51.146;6.576;2023-02-01T01:10:37;5.30;99.90
42907;DHT22;28552;51.146;6.576;2023-02-01T01:13:38;5.30;99.90
42907;DHT22;28552;51.146;6.576;2023-02-01T01:16:38;5.30;99.90
42907;DHT22;28552;51.146;6.576;2023-02-01T01:19:39;5.20;99.90
42907;DHT22;28552;51.146;6.576;2023-02-01T01:22:39;5.20;99.90
42907;DHT22;28552;51.146;6.576;2023-02-01T01:25:40;5.10;99.90
42907;DHT22;28552;51.146;6.576;2023-02-01T01:28:41;5.10;99.90
42907;DHT22;28552;51.146;6.576;2023-02-01T01:31:42;5.10;99.90
42907;DHT22;28552;51.146;6.576;2023-02-01T01:34:42;5.00;99.90
42907;DHT22;28552;51.146;6.576;2023-02-01T01:37:43;5.00;99.90
42907;DHT22;28552;51.146;6.576;2023-02-01T01:40:46;5.00;99.90
42907;DHT22;28552;51.146;6.576;2023-02-01T01:47:02;5.00;99.90
42907;DHT22;28552;51.146;6.576;2023-02-01T01:50:04;5.00;99.90
42907;DHT22;28552;51.146;6.576;2023-02-01T01:53:08;5.00;99.90
42907;DHT22;28552;51.146;6.576;2023-02-01T01:56:11;5.00;99.90
42907;DHT22;28552;51.146;6.576;2023-02-01T01:59:12;5.00;99.90
42907;DHT22;28552;51.146;6.576;2023-02-01T02:02:13;5.00;99.90
42907;DHT22;28552;51.146;6.576;2023-02-01T02:05:15;5.00;99.90
42907;DHT22;28552;51.146;6.576;2023-02-01T02:08:17;5.00;99.90
42907;DHT22;28552;51.146;6.576;2023-02-01T02:11:18;5.00;99.90
42907;DHT22;28552;51.146;6.576;2023-02-01T02:14:21;5.00;99.90
42907;DHT22;28552;51.146;6.576;2023-02-01T02:17:31;5.00;99.90
42907;DHT22;28552;51.146;6.576;2023-02-01T02:31:08;4.90;99.90
42907;DHT22;28552;51.146;6.576;2023-02-01T02:34:24;5.00;99.90
42907;DHT22;28552;51.146;6.576;2023-02-01T02:37:53;5.00;99.90
42907;DHT22;28552;51.146;6.576;2023-02-01T02:41:13;5.10;99.90
42907;DHT22;28552;51.146;6.576;2023-02-01T02:44:46;5.20;99.90
42907;DHT22;28552;51.146;6.576;2023-02-01T02:51:29;5.30;99.90
42907;DHT22;28552;51.146;6.576;2023-02-01T02:54:49;5.30;99.90
42907;DHT22;28552;51.146;6.576;2023-02-01T02:57:52;5.30;99.90
42907;DHT22;28552;51.146;6.576;2023-02-01T03:01:09;5.30;99.90
42907;DHT22;28552;51.146;6.576;2023-02-01T03:04:24;5.30;99.90
42907;DHT22;28552;51.146;6.576;2023-02-01T03:08:16;5.30;99.90
42907;DHT22;28552;51.146;6.576;2023-02-01T03:11:05;5.20;99.90
42907;DHT22;28552;51.146;6.576;2023-02-01T03:14:06;5.20;99.90
42907;DHT22;28552;51.146;6.576;2023-02-01T03:17:11;5.10;99.90
42907;DHT22;28552;51.146;6.576;2023-02-01T03:20:14;5.20;99.90
42907;DHT22;28552;51.146;6.576;2023-02-01T03:23:19;5.30;99.90
42907;DHT22;28552;51.146;6.576;2023-02-01T03:26:22;5.40;99.90
42907;DHT22;28552;51.146;6.576;2023-02-01T03:29:31;5.50;99.90
42907;DHT22;28552;51.146;6.576;2023-02-01T03:32:35;5.50;99.90
42907;DHT22;28552;51.146;6.576;2023-02-01T03:39:19;5.60;99.90
42907;DHT22;28552;51.146;6.576;2023-02-01T03:42:27;5.60;99.90
42907;DHT22;28552;51.146;6.576;2023-02-01T03:45:34;5.60;99.90
42907;DHT22;28552;51.146;6.576;2023-02-01T03:48:37;5.70;99.90
42907;DHT22;28552;51.146;6.576;2023-02-01T03:51:40;5.70;99.90
42907;DHT22;28552;51.146;6.576;2023-02-01T03:54:41;5.70;99.90
42907;DHT22;28552;51.146;6.576;2023-02-01T03:57:48;5.80;99.90
42907;DHT22;28552;51.146;6.576;2023-02-01T04:00:54;5.80;99.90
42907;DHT22;28552;51.146;6.576;2023-02-01T04:03:56;5.80;99.90
42907;DHT22;28552;51.146;6.576;2023-02-01T04:06:56;5.80;99.90
42907;DHT22;28552;51.146;6.576;2023-02-01T04:09:57;5.80;99.90
42907;DHT22;28552;51.146;6.576;2023-02-01T04:12:57;5.80;99.90
42907;DHT22;28552;51.146;6.576;2023-02-01T04:15:58;5.80;99.90
42907;DHT22;28552;51.146;6.576;2023-02-01T04:18:58;5.70;99.90
42907;DHT22;28552;51.146;6.576;2023-02-01T04:21:59;5.70;99.90
42907;DHT22;28552;51.146;6.576;2023-02-01T04:25:00;5.70;99.90
42907;DHT22;28552;51.146;6.576;2023-02-01T04:28:00;5.60;99.90
42907;DHT22;28552;51.146;6.576;2023-02-01T04:31:01;5.60;99.90
42907;DHT22;28552;51.146;6.576;2023-02-01T04:34:01;5.50;99.90
42907;DHT22;28552;51.146;6.576;2023-02-01T04:37:02;5.50;99.90
42907;DHT22;28552;51.146;6.576;2023-02-01T04:40:03;5.50;99.90
42907;DHT22;28552;51.146;6.576;2023-02-01T04:43:04;5.40;99.90
42907;DHT22;28552;51.146;6.576;2023-02-01T04:46:04;5.40;99.90
42907;DHT22;28552;51.146;6.576;2023-02-01T04:49:05;5.30;99.90
42907;DHT22;28552;51.146;6.576;2023-02-01T04:52:06;5.30;99.90
42907;DHT22;28552;51.146;6.576;2023-02-01T04:55:06;5.30;99.90
42907;DHT22;28552;51.146;6.576;2023-02-01T04:58:07;5.20;99.90
42907;DHT22;28552;51.146;6.576;2023-02-01T05:01:08;5.20;99.90
42907;DHT22;28552;51.146;6.576;2023-02-01T05:04:09;5.20;99.90
42907;DHT22;28552;51.146;6.576;2023-02-01T05:07:09;5.10;99.90
42907;DHT22;28552;51.146;6.576;2023-02-01T05:10:10;5.10;99.90
42907;DHT22;28552;51.146;6.576;2023-02-01T05:13:10;5.10;99.90
42907;DHT22;28552;51.146;6.576;2023-02-01T05:16:26;5.10;99.90
42907;DHT22;28552;51.146;6.576;2023-02-01T05:19:27;5.10;99.90
42907;DHT22;28552;51.146;6.576;2023-02-01T05:22:27;5.00;99.90
42907;DHT22;28552;51.146;6.576;2023-02-01T05:25:28;4.90;99.90
42907;DHT22;28552;51.146;6.576;2023-02-01T05:28:28;4.90;99.90
42907;DHT22;28552;51.146;6.576;2023-02-01T05:31:29;4.90;99.90
42907;DHT22;28552;51.146;6.576;2023-02-01T05:34:30;4.90;99.90
42907;DHT22;28552;51.146;6.576;2023-02-01T05:37:30;4.90;99.90
42907;DHT22;28552;51.146;6.576;2023-02-01T05:40:31;5.00;99.90
42907;DHT22;28552;51.146;6.576;2023-02-01T05:43:31;5.10;99.90
42907;DHT22;28552;51.146;6.576;2023-02-01T05:46:32;5.00;99.90
42907;DHT22;28552;51.146;6.576;2023-02-01T05:49:32;5.00;99.90
42907;DHT22;28552;51.146;6.576;2023-02-01T05:52:33;5.00;99.90
42907;DHT22;28552;51.146;6.576;2023-02-01T05:55:34;5.10;99.90
42907;DHT22;28552;51.146;6.576;2023-02-01T05:58:34;5.10;99.90
42907;DHT22;28552;51.146;6.576;2023-02-01T06:01:35;5.10;99.90
42907;DHT22;28552;51.146;6.576;2023-02-01T06:04:35;5.00;99.90
42907;DHT22;28552;51.146;6.576;2023-02-01T06:07:36;5.00;99.90
42907;DHT22;28552;51.146;6.576;2023-02-01T06:10:37;5.00;99.90
42907;DHT22;28552;51.146;6.576;2023-02-01T06:13:37;5.00;99.90
42907;DHT22;28552;51.146;6.576;2023-02-01T06:16:38;4.90;99.90
42907;DHT22;28552;51.146;6.576;2023-02-01T06:19:39;4.90;99.90
42907;DHT22;28552;51.146;6.576;2023-02-01T06:22:40;5.00;99.90
42907;DHT22;28552;51.146;6.576;2023-02-01T06:25:41;5.00;99.90
42907;DHT22;28552;51.146;6.576;2023-02-01T06:28:41;5.10;99.90
42907;DHT22;28552;51.146;6.576;2023-02-01T06:31:42;5.10;99.90
42907;DHT22;28552;51.146;6.576;2023-02-01T06:34:43;5.20;99.90
42907;DHT22;28552;51.146;6.576;2023-02-01T06:37:43;5.20;99.90
42907;DHT22;28552;51.146;6.576;2023-02-01T06:40:44;5.20;99.90
42907;DHT22;28552;51.146;6.576;2023-02-01T06:43:51;5.30;99.90
42907;DHT22;28552;51.146;6.576;2023-02-01T06:46:52;5.30;99.90
42907;DHT22;28552;51.146;6.576;2023-02-01T06:49:52;5.30;99.90
42907;DHT22;28552;51.146;6.576;2023-02-01T06:52:53;5.30;99.90
42907;DHT22;28552;51.146;6.576;2023-02-01T06:55:56;5.30;99.90
42907;DHT22;28552;51.146;6.576;2023-02-01T06:58:57;5.40;99.90
42907;DHT22;28552;51.146;6.576;2023-02-01T07:01:57;5.40;99.90
42907;DHT22;28552;51.146;6.576;2023-02-01T07:04:58;5.40;99.90
42907;DHT22;28552;51.146;6.576;2023-02-01T07:07:58;5.50;99.90
42907;DHT22;28552;51.146;6.576;2023-02-01T07:11:08;5.50;99.90
42907;DHT22;28552;51.146;6.576;2023-02-01T07:14:10;5.40;99.90
42907;DHT22;28552;51.146;6.576;2023-02-01T07:17:11;5.50;99.90
42907;DHT22;28552;51.146;6.576;2023-02-01T07:20:11;5.50;99.90
42907;DHT22;28552;51.146;6.576;2023-02-01T07:23:13;5.60;99.90
42907;DHT22;28552;51.146;6.576;2023-02-01T07:26:14;5.60;99.90
42907;DHT22;28552;51.146;6.576;2023-02-01T07:29:14;5.60;99.90
42907;DHT22;28552;51.146;6.576;2023-02-01T07:32:15;5.60;99.90
42907;DHT22;28552;51.146;6.576;2023-02-01T07:35:18;5.60;99.90
42907;DHT22;28552;51.146;6.576;2023-02-01T07:38:18;5.60;99.90
42907;DHT22;28552;51.146;6.576;2023-02-01T07:41:21;5.60;99.90
42907;DHT22;28552;51.146;6.576;2023-02-01T07:44:22;5.60;99.90
42907;DHT22;28552;51.146;6.576;2023-02-01T07:47:23;5.60;99.90
42907;DHT22;28552;51.146;6.576;2023-02-01T07:50:24;5.60;99.90
42907;DHT22;28552;51.146;6.576;2023-02-01T07:53:24;5.60;99.90
42907;DHT22;28552;51.146;6.576;2023-02-01T07:56:25;5.60;99.90
42907;DHT22;28552;51.146;6.576;2023-02-01T07:59:25;5.60;99.90
42907;DHT22;28552;51.146;6.576;2023-02-01T08:02:26;5.60;99.90
42907;DHT22;28552;51.146;6.576;2023-02-01T08:05:27;5.60;99.90
42907;DHT22;28552;51.146;6.576;2023-02-01T08:08:27;5.60;99.90
42907;DHT22;28552;51.146;6.576;2023-02-01T08:11:28;5.60;99.90
42907;DHT22;28552;51.146;6.576;2023-02-01T08:14:29;5.60;99.90
42907;DHT22;28552;51.146;6.576;2023-02-01T08:17:30;5.60;99.90
42907;DHT22;28552;51.146;6.576;2023-02-01T08:20:31;5.60;99.90
42907;DHT22;28552;51.146;6.576;2023-02-01T08:23:32;5.60;99.90
42907;DHT22;28552;51.146;6.576;2023-02-01T08:26:34;5.60;99.90
42907;DHT22;28552;51.146;6.576;2023-02-01T08:29:34;5.70;99.90
42907;DHT22;28552;51.146;6.576;2023-02-01T08:32:35;5.70;99.90
42907;DHT22;28552;51.146;6.576;2023-02-01T08:35:36;5.70;99.90
42907;DHT22;28552;51.146;6.576;2023-02-01T08:38:38;5.70;99.90
42907;DHT22;28552;51.146;6.576;2023-02-01T08:41:39;5.70;99.90
42907;DHT22;28552;51.146;6.576;2023-02-01T08:44:42;5.80;99.90
42907;DHT22;28552;51.146;6.576;2023-02-01T08:47:42;5.80;99.90
42907;DHT22;28552;51.146;6.576;2023-02-01T08:50:43;5.80;99.90
42907;DHT22;28552;51.146;6.576;2023-02-01T08:53:44;5.80;99.90
42907;DHT22;28552;51.146;6.576;2023-02-01T08:56:45;5.80;99.90
42907;DHT22;28552;51.146;6.576;2023-02-01T08:59:45;5.90;99.90
42907;DHT22;28552;51.146;6.576;2023-02-01T09:02:46;5.90;99.90
42907;DHT22;28552;51.146;6.576;2023-02-01T09:05:46;6.00;99.90
42907;DHT22;28552;51.146;6.576;2023-02-01T09:08:47;6.00;99.90
42907;DHT22;28552;51.146;6.576;2023-02-01T09:11:48;6.00;99.90
42907;DHT22;28552;51.146;6.576;2023-02-01T09:14:50;6.10;99.90
42907;DHT22;28552;51.146;6.576;2023-02-01T09:17:51;6.10;99.90
42907;DHT22;28552;51.146;6.576;2023-02-01T09:20:51;6.00;99.90
42907;DHT22;28552;51.146;6.576;2023-02-01T09:23:52;6.00;99.90
42907;DHT22;28552;51.146;6.576;2023-02-01T09:26:52;6.00;99.90
42907;DHT22;28552;51.146;6.576;2023-02-01T09:29:53;6.10;99.90
42907;DHT22;28552;51.146;6.576;2023-02-01T09:32:53;6.10;99.90
42907;DHT22;28552;51.146;6.576;2023-02-01T09:35:59;6.20;99.90
42907;DHT22;28552;51.146;6.576;2023-02-01T09:39:00;6.20;99.90
42907;DHT22;28552;51.146;6.576;2023-02-01T09:42:14;6.20;99.90
42907;DHT22;28552;51.146;6.576;2023-02-01T09:48:36;6.20;99.90
42907;DHT22;28552;51.146;6.576;2023-02-01T09:51:38;6.20;99.90
42907;DHT22;28552;51.146;6.576;2023-02-01T09:54:47;6.10;99.90
42907;DHT22;28552;51.146;6.576;2023-02-01T09:57:54;6.10;99.90
42907;DHT22;28552;51.146;6.576;2023-02-01T10:00:59;6.10;99.90
42907;DHT22;28552;51.146;6.576;2023-02-01T10:04:03;6.10;99.90
42907;DHT22;28552;51.146;6.576;2023-02-01T10:07:20;6.10;99.90
42907;DHT22;28552;51.146;6.576;2023-02-01T10:10:28;6.10;99.90
42907;DHT22;28552;51.146;6.576;2023-02-01T10:13:46;6.00;99.90
42907;DHT22;28552;51.146;6.576;2023-02-01T10:16:57;6.10;99.90
42907;DHT22;28552;51.146;6.576;2023-02-01T10:20:09;6.00;99.90
42907;DHT22;28552;51.146;6.576;2023-02-01T10:23:43;6.00;99.90
42907;DHT22;28552;51.146;6.576;2023-02-01T10:26:54;6.10;99.90
42907;DHT22;28552;51.146;6.576;2023-02-01T10:30:04;6.10;99.90
42907;DHT22;28552;51.146;6.576;2023-02-01T10:33:18;6.20;99.90
42907;DHT22;28552;51.146;6.576;2023-02-01T10:36:26;6.30;99.90
42907;DHT22;28552;51.146;6.576;2023-02-01T10:39:28;6.50;99.90
42907;DHT22;28552;51.146;6.576;2023-02-01T10:42:29;6.60;99.90
42907;DHT22;28552;51.146;6.576;2023-02-01T10:45:33;6.70;99.90
42907;DHT22;28552;51.146;6.576;2023-02-01T10:48:34;6.80;99.90
42907;DHT22;28552;51.146;6.576;2023-02-01T10:51:43;7.00;99.90
42907;DHT22;28552;51.146;6.576;2023-02-01T10:54:45;7.00;99.90
42907;DHT22;28552;51.146;6.576;2023-02-01T10:57:57;7.00;99.90
42907;DHT22;28552;51.146;6.576;2023-02-01T11:01:02;7.00;99.90
42907;DHT22;28552;51.146;6.576;2023-02-01T11:04:10;7.00;99.90
42907;DHT22;28552;51.146;6.576;2023-02-01T11:07:22;7.10;99.90
42907;DHT22;28552;51.146;6.576;2023-02-01T11:10:39;7.10;99.90
42907;DHT22;28552;51.146;6.576;2023-02-01T11:13:41;7.20;99.90
42907;DHT22;28552;51.146;6.576;2023-02-01T11:16:47;7.30;99.90
42907;DHT22;28552;51.146;6.576;2023-02-01T11:19:58;7.30;99.90
42907;DHT22;28552;51.146;6.576;2023-02-01T11:22:59;7.50;99.90
42907;DHT22;28552;51.146;6.576;2023-02-01T11:26:07;7.50;99.90
42907;DHT22;28552;51.146;6.576;2023-02-01T11:29:14;7.50;99.90
42907;DHT22;28552;51.146;6.576;2023-02-01T11:32:19;7.50;99.90
42907;DHT22;28552;51.146;6.576;2023-02-01T11:35:21;7.50;99.90
42907;DHT22;28552;51.146;6.576;2023-02-01T11:38:26;7.60;99.90
42907;DHT22;28552;51.146;6.576;2023-02-01T11:41:28;7.50;99.90
42907;DHT22;28552;51.146;6.576;2023-02-01T11:44:44;7.60;99.90
42907;DHT22;28552;51.146;6.576;2023-02-01T11:47:45;7.60;99.90
42907;DHT22;28552;51.146;6.576;2023-02-01T12:01:01;7.60;99.90
42907;DHT22;28552;51.146;6.576;2023-02-01T12:04:25;7.70;99.90
42907;DHT22;28552;51.146;6.576;2023-02-01T12:07:38;7.70;99.90
42907;DHT22;28552;51.146;6.576;2023-02-01T12:11:17;7.70;99.90
42907;DHT22;28552;51.146;6.576;2023-02-01T12:14:44;7.70;99.90
42907;DHT22;28552;51.146;6.576;2023-02-01T12:18:02;7.70;99.90
42907;DHT22;28552;51.146;6.576;2023-02-01T12:25:03;7.70;99.90
42907;DHT22;28552;51.146;6.576;2023-02-01T12:28:13;7.70;99.90
42907;DHT22;28552;51.146;6.576;2023-02-01T12:38:18;7.70;99.90
42907;DHT22;28552;51.146;6.576;2023-02-01T12:41:43;7.70;99.90
42907;DHT22;28552;51.146;6.576;2023-02-01T12:44:49;7.70;99.90
42907;DHT22;28552;51.146;6.576;2023-02-01T12:47:56;7.70;99.90
42907;DHT22;28552;51.146;6.576;2023-02-01T12:51:02;7.70;99.90
42907;DHT22;28552;51.146;6.576;2023-02-01T12:54:09;7.70;99.90
42907;DHT22;28552;51.146;6.576;2023-02-01T12:57:17;7.70;99.90
42907;DHT22;28552;51.146;6.576;2023-02-01T13:00:30;7.80;99.90
42907;DHT22;28552;51.146;6.576;2023-02-01T13:06:52;7.90;99.90
42907;DHT22;28552;51.146;6.576;2023-02-01T13:10:01;7.90;99.90
42907;DHT22;28552;51.146;6.576;2023-02-01T13:19:39;7.80;99.90
42907;DHT22;28552;51.146;6.576;2023-02-01T13:22:46;7.80;99.90
42907;DHT22;28552;51.146;6.576;2023-02-01T13:25:50;7.80;99.90
42907;DHT22;28552;51.146;6.576;2023-02-01T13:28:55;7.80;99.90
42907;DHT22;28552;51.146;6.576;2023-02-01T13:35:45;7.80;99.90
42907;DHT22;28552;51.146;6.576;2023-02-01T13:42:25;7.80;99.90
42907;DHT22;28552;51.146;6.576;2023-02-01T13:45:30;7.80;99.90
42907;DHT22;28552;51.146;6.576;2023-02-01T13:48:38;7.80;99.90
42907;DHT22;28552;51.146;6.576;2023-02-01T13:51:43;7.80;99.90
42907;DHT22;28552;51.146;6.576;2023-02-01T13:54:45;7.90;99.90
42907;DHT22;28552;51.146;6.576;2023-02-01T13:57:47;7.90;99.90
42907;DHT22;28552;51.146;6.576;2023-02-01T14:00:50;7.90;99.90
42907;DHT22;28552;51.146;6.576;2023-02-01T14:03:54;7.90;99.90
42907;DHT22;28552;51.146;6.576;2023-02-01T14:06:55;8.00;99.90
42907;DHT22;28552;51.146;6.576;2023-02-01T14:09:56;8.00;99.90
42907;DHT22;28552;51.146;6.576;2023-02-01T14:13:11;8.00;99.90
42907;DHT22;28552;51.146;6.576;2023-02-01T14:16:15;8.00;99.90
42907;DHT22;28552;51.146;6.576;2023-02-01T14:19:26;8.00;99.90
42907;DHT22;28552;51.146;6.576;2023-02-01T14:22:33;8.00;99.90
42907;DHT22;28552;51.146;6.576;2023-02-01T14:25:34;8.00;99.90
42907;DHT22;28552;51.146;6.576;2023-02-01T14:28:38;8.00;99.90
42907;DHT22;28552;51.146;6.576;2023-02-01T14:31:43;8.00;99.90
42907;DHT22;28552;51.146;6.576;2023-02-01T14:37:51;8.00;99.90
42907;DHT22;28552;51.146;6.576;2023-02-01T14:40:52;8.00;99.90
42907;DHT22;28552;51.146;6.576;2023-02-01T14:50:39;8.10;99.90
42907;DHT22;28552;51.146;6.576;2023-02-01T14:53:41;8.10;99.90
42907;DHT22;28552;51.146;6.576;2023-02-01T14:56:44;8.10;99.90
42907;DHT22;28552;51.146;6.576;2023-02-01T14:59:46;8.10;99.90
42907;DHT22;28552;51.146;6.576;2023-02-01T15:02:48;8.10;99.90
42907;DHT22;28552;51.146;6.576;2023-02-01T15:05:58;8.00;99.90
42907;DHT22;28552;51.146;6.576;2023-02-01T15:12:31;8.10;99.90
42907;DHT22;28552;51.146;6.576;2023-02-01T15:15:33;8.10;99.90
42907;DHT22;28552;51.146;6.576;2023-02-01T15:18:37;8.10;99.90
42907;DHT22;28552;51.146;6.576;2023-02-01T15:21:47;8.10;99.90
42907;DHT22;28552;51.146;6.576;2023-02-01T15:24:53;8.10;99.90
42907;DHT22;28552;51.146;6.576;2023-02-01T15:27:55;8.10;99.90
42907;DHT22;28552;51.146;6.576;2023-02-01T15:30:59;8.00;99.90
42907;DHT22;28552;51.146;6.576;2023-02-01T15:34:00;8.00;99.90
42907;DHT22;28552;51.146;6.576;2023-02-01T15:37:05;8.00;99.90
42907;DHT22;28552;51.146;6.576;2023-02-01T15:40:20;8.00;99.90
42907;DHT22;28552;51.146;6.576;2023-02-01T15:43:22;8.10;99.90
42907;DHT22;28552;51.146;6.576;2023-02-01T15:49:32;8.00;99.90
42907;DHT22;28552;51.146;6.576;2023-02-01T15:52:39;8.00;99.90
42907;DHT22;28552;51.146;6.576;2023-02-01T15:55:41;8.00;99.90
42907;DHT22;28552;51.146;6.576;2023-02-01T15:58:53;8.00;99.90
42907;DHT22;28552;51.146;6.576;2023-02-01T16:01:54;8.00;99.90
42907;DHT22;28552;51.146;6.576;2023-02-01T16:04:55;8.00;99.90
42907;DHT22;28552;51.146;6.576;2023-02-01T16:08:01;8.00;99.90
42907;DHT22;28552;51.146;6.576;2023-02-01T16:11:23;8.00;99.90
42907;DHT22;28552;51.146;6.576;2023-02-01T16:14:25;8.00;99.90
42907;DHT22;28552;51.146;6.576;2023-02-01T16:17:26;7.90;99.90
42907;DHT22;28552;51.146;6.576;2023-02-01T16:20:27;8.00;99.90
42907;DHT22;28552;51.146;6.576;2023-02-01T16:23:28;8.00;99.90
42907;DHT22;28552;51.146;6.576;2023-02-01T16:26:30;7.90;99.90
42907;DHT22;28552;51.146;6.576;2023-02-01T16:29:31;7.90;99.90
42907;DHT22;28552;51.146;6.576;2023-02-01T16:32:32;7.90;99.90
42907;DHT22;28552;51.146;6.576;2023-02-01T16:35:35;7.90;99.90
42907;DHT22;28552;51.146;6.576;2023-02-01T16:38:36;7.90;99.90
42907;DHT22;28552;51.146;6.576;2023-02-01T16:41:36;7.80;99.90
42907;DHT22;28552;51.146;6.576;2023-02-01T16:44:37;7.80;99.90
42907;DHT22;28552;51.146;6.576;2023-02-01T16:47:46;7.80;99.90
42907;DHT22;28552;51.146;6.576;2023-02-01T16:50:50;7.70;99.90
42907;DHT22;28552;51.146;6.576;2023-02-01T16:53:51;7.80;99.90
42907;DHT22;28552;51.146;6.576;2023-02-01T16:56:52;7.70;99.90
42907;DHT22;28552;51.146;6.576;2023-02-01T16:59:53;7.80;99.90
42907;DHT22;28552;51.146;6.576;2023-02-01T17:02:53;7.80;99.90
42907;DHT22;28552;51.146;6.576;2023-02-01T17:05:55;7.80;99.90
42907;DHT22;28552;51.146;6.576;2023-02-01T17:08:58;7.80;99.90
42907;DHT22;28552;51.146;6.576;2023-02-01T17:11:59;7.90;99.90
42907;DHT22;28552;51.146;6.576;2023-02-01T17:14:59;7.90;99.90
42907;DHT22;28552;51.146;6.576;2023-02-01T17:18:00;7.90;99.90
42907;DHT22;28552;51.146;6.576;2023-02-01T17:21:03;7.90;99.90
42907;DHT22;28552;51.146;6.576;2023-02-01T17:24:05;7.80;99.90
42907;DHT22;28552;51.146;6.576;2023-02-01T17:27:06;7.80;99.90
42907;DHT22;28552;51.146;6.576;2023-02-01T17:30:08;7.90;99.90
42907;DHT22;28552;51.146;6.576;2023-02-01T17:36:17;7.80;99.90
42907;DHT22;28552;51.146;6.576;2023-02-01T17:39:18;7.80;99.90
42907;DHT22;28552;51.146;6.576;2023-02-01T17:42:33;7.80;99.90
42907;DHT22;28552;51.146;6.576;2023-02-01T17:45:38;7.80;99.90
42907;DHT22;28552;51.146;6.576;2023-02-01T17:48:40;7.70;99.90
42907;DHT22;28552;51.146;6.576;2023-02-01T17:51:40;7.70;99.90
42907;DHT22;28552;51.146;6.576;2023-02-01T17:54:41;7.70;99.90
42907;DHT22;28552;51.146;6.576;2023-02-01T17:57:41;7.70;99.90
42907;DHT22;28552;51.146;6.576;2023-02-01T18:00:43;7.70;99.90
42907;DHT22;28552;51.146;6.576;2023-02-01T18:03:44;7.70;99.90
42907;DHT22;28552;51.146;6.576;2023-02-01T18:06:45;7.70;99.90
42907;DHT22;28552;51.146;6.576;2023-02-01T18:09:45;7.70;99.90
42907;DHT22;28552;51.146;6.576;2023-02-01T18:12:46;7.70;99.90
42907;DHT22;28552;51.146;6.576;2023-02-01T18:15:46;7.70;99.90
42907;DHT22;28552;51.146;6.576;2023-02-01T18:18:47;7.70;99.90
42907;DHT22;28552;51.146;6.576;2023-02-01T18:21:48;7.70;99.90
42907;DHT22;28552;51.146;6.576;2023-02-01T18:24:48;7.70;99.90
42907;DHT22;28552;51.146;6.576;2023-02-01T18:27:51;7.60;99.90
42907;DHT22;28552;51.146;6.576;2023-02-01T18:30:51;7.60;99.90
42907;DHT22;28552;51.146;6.576;2023-02-01T18:33:54;7.60;99.90
42907;DHT22;28552;51.146;6.576;2023-02-01T18:36:54;7.60;99.90
42907;DHT22;28552;51.146;6.576;2023-02-01T18:39:55;7.50;99.90
42907;DHT22;28552;51.146;6.576;2023-02-01T18:42:56;7.50;99.90
42907;DHT22;28552;51.146;6.576;2023-02-01T18:45:57;7.50;99.90
42907;DHT22;28552;51.146;6.576;2023-02-01T18:48:58;7.50;99.90
42907;DHT22;28552;51.146;6.576;2023-02-01T18:51:58;7.50;99.90
42907;DHT22;28552;51.146;6.576;2023-02-01T18:54:59;7.50;99.90
42907;DHT22;28552;51.146;6.576;2023-02-01T18:58:02;7.40;99.90
42907;DHT22;28552;51.146;6.576;2023-02-01T19:01:07;7.40;99.90
42907;DHT22;28552;51.146;6.576;2023-02-01T19:04:08;7.50;99.90
42907;DHT22;28552;51.146;6.576;2023-02-01T19:07:08;7.50;99.90
42907;DHT22;28552;51.146;6.576;2023-02-01T19:10:15;7.50;99.90
42907;DHT22;28552;51.146;6.576;2023-02-01T19:13:16;7.50;99.90
42907;DHT22;28552;51.146;6.576;2023-02-01T19:16:20;7.50;99.90
42907;DHT22;28552;51.146;6.576;2023-02-01T19:19:20;7.50;99.90
42907;DHT22;28552;51.146;6.576;2023-02-01T19:22:21;7.50;99.90
42907;DHT22;28552;51.146;6.576;2023-02-01T19:25:24;7.50;99.90
42907;DHT22;28552;51.146;6.576;2023-02-01T19:28:25;7.50;99.90
42907;DHT22;28552;51.146;6.576;2023-02-01T19:31:26;7.50;99.90
42907;DHT22;28552;51.146;6.576;2023-02-01T19:34:26;7.50;99.90
42907;DHT22;28552;51.146;6.576;2023-02-01T19:37:27;7.50;99.90
42907;DHT22;28552;51.146;6.576;2023-02-01T19:40:27;7.60;99.90
42907;DHT22;28552;51.146;6.576;2023-02-01T19:43:28;7.60;99.90
42907;DHT22;28552;51.146;6.576;2023-02-01T19:46:29;7.60;99.90
42907;DHT22;28552;51.146;6.576;2023-02-01T19:49:29;7.60;99.90
42907;DHT22;28552;51.146;6.576;2023-02-01T19:52:30;7.60;99.90
42907;DHT22;28552;51.146;6.576;2023-02-01T19:55:31;7.60;99.90
42907;DHT22;28552;51.146;6.576;2023-02-01T19:58:31;7.60;99.90
42907;DHT22;28552;51.146;6.576;2023-02-01T20:01:33;7.70;99.90
42907;DHT22;28552;51.146;6.576;2023-02-01T20:04:33;7.60;99.90
42907;DHT22;28552;51.146;6.576;2023-02-01T20:07:34;7.70;99.90
42907;DHT22;28552;51.146;6.576;2023-02-01T20:10:34;7.70;99.90
42907;DHT22;28552;51.146;6.576;2023-02-01T20:13:35;7.70;99.90
42907;DHT22;28552;51.146;6.576;2023-02-01T20:16:39;7.70;99.90
42907;DHT22;28552;51.146;6.576;2023-02-01T20:19:40;7.70;99.90
42907;DHT22;28552;51.146;6.576;2023-02-01T20:22:41;7.70;99.90
42907;DHT22;28552;51.146;6.576;2023-02-01T20:25:41;7.70;99.90
42907;DHT22;28552;51.146;6.576;2023-02-01T20:28:42;7.70;99.90
42907;DHT22;28552;51.146;6.576;2023-02-01T20:31:43;7.60;99.90
42907;DHT22;28552;51.146;6.576;2023-02-01T20:34:45;7.60;99.90
42907;DHT22;28552;51.146;6.576;2023-02-01T20:37:45;7.70;99.90
42907;DHT22;28552;51.146;6.576;2023-02-01T20:40:49;7.70;99.90
42907;DHT22;28552;51.146;6.576;2023-02-01T20:43:50;7.80;99.90
42907;DHT22;28552;51.146;6.576;2023-02-01T20:46:50;7.80;99.90
42907;DHT22;28552;51.146;6.576;2023-02-01T20:49:51;7.80;99.90
42907;DHT22;28552;51.146;6.576;2023-02-01T20:52:51;7.90;99.90
42907;DHT22;28552;51.146;6.576;2023-02-01T20:55:54;7.80;99.90
42907;DHT22;28552;51.146;6.576;2023-02-01T20:58:55;7.80;99.90